sensor_id;sensor_type;location;lat;lon;timestamp;temperature;humidity
33901;DHT22;20193;49.810;6.418;2022-08-19T00:01:31;19.60;89.70
33901;DHT22;20193;49.810;6.418;2022-08-19T00:04:03;19.50;89.70
33901;DHT22;20193;49.810;6.418;2022-08-19T00:06:29;19.50;89.80
33901;DHT22;20193;49.810;6.418;2022-08-19T00:08:56;19.50;89.90
33901;DHT22;20193;49.810;6.418;2022-08-19T00:11:23;19.50;90.00
33901;DHT22;20193;49.810;6.418;2022-08-19T00:13:49;19.40;90.00
33901;DHT22;20193;49.810;6.418;2022-08-19T00:16:18;19.40;90.10
33901;DHT22;20193;49.810;6.418;2022-08-19T00:18:45;19.40;90.10
33901;DHT22;20193;49.810;6.418;2022-08-19T00:21:10;19.40;90.10
33901;DHT22;20193;49.810;6.418;2022-08-19T00:23:36;19.40;90.20
33901;DHT22;20193;49.810;6.418;2022-08-19T00:26:04;19.30;90.20
33901;DHT22;20193;49.810;6.418;2022-08-19T00:28:30;19.30;90.30
33901;DHT22;20193;49.810;6.418;2022-08-19T00:30:56;19.30;90.30
33901;DHT22;20193;49.810;6.418;2022-08-19T00:33:22;19.30;90.50
33901;DHT22;20193;49.810;6.418;2022-08-19T00:35:47;19.20;90.60
33901;DHT22;20193;49.810;6.418;2022-08-19T00:38:13;19.20;90.70
33901;DHT22;20193;49.810;6.418;2022-08-19T00:40:39;19.20;90.80
33901;DHT22;20193;49.810;6.418;2022-08-19T00:43:09;19.20;91.00
33901;DHT22;20193;49.810;6.418;2022-08-19T00:45:35;19.20;91.00
33901;DHT22;20193;49.810;6.418;2022-08-19T00:48:01;19.20;91.10
33901;DHT22;20193;49.810;6.418;2022-08-19T00:50:30;19.20;91.10
33901;DHT22;20193;49.810;6.418;2022-08-19T00:52:56;19.10;91.10
33901;DHT22;20193;49.810;6.418;2022-08-19T00:55:25;19.10;91.10
33901;DHT22;20193;49.810;6.418;2022-08-19T00:57:57;19.10;91.10
33901;DHT22;20193;49.810;6.418;2022-08-19T01:00:27;19.10;91.20
33901;DHT22;20193;49.810;6.418;2022-08-19T01:02:53;19.00;91.20
33901;DHT22;20193;49.810;6.418;2022-08-19T01:05:23;19.00;91.30
33901;DHT22;20193;49.810;6.418;2022-08-19T01:07:50;19.00;91.30
33901;DHT22;20193;49.810;6.418;2022-08-19T01:10:19;19.00;91.40
33901;DHT22;20193;49.810;6.418;2022-08-19T01:12:46;18.90;91.40
33901;DHT22;20193;49.810;6.418;2022-08-19T01:15:14;18.90;91.40
33901;DHT22;20193;49.810;6.418;2022-08-19T01:17:42;18.90;91.40
33901;DHT22;20193;49.810;6.418;2022-08-19T01:20:18;18.90;91.50
33901;DHT22;20193;49.810;6.418;2022-08-19T01:22:54;18.80;91.50
33901;DHT22;20193;49.810;6.418;2022-08-19T01:25:34;18.80;91.60
33901;DHT22;20193;49.810;6.418;2022-08-19T01:28:01;18.80;91.70
33901;DHT22;20193;49.810;6.418;2022-08-19T01:30:31;18.80;91.70
33901;DHT22;20193;49.810;6.418;2022-08-19T01:32:58;18.70;91.70
33901;DHT22;20193;49.810;6.418;2022-08-19T01:35:27;18.70;91.70
33901;DHT22;20193;49.810;6.418;2022-08-19T01:37:55;18.70;91.70
33901;DHT22;20193;49.810;6.418;2022-08-19T01:40:23;18.70;91.80
33901;DHT22;20193;49.810;6.418;2022-08-19T01:42:52;18.70;91.80
33901;DHT22;20193;49.810;6.418;2022-08-19T01:45:19;18.60;91.80
33901;DHT22;20193;49.810;6.418;2022-08-19T01:47:45;18.60;91.90
33901;DHT22;20193;49.810;6.418;2022-08-19T01:50:12;18.60;92.20
33901;DHT22;20193;49.810;6.418;2022-08-19T01:52:39;18.60;92.00
33901;DHT22;20193;49.810;6.418;2022-08-19T01:55:11;18.50;92.00
33901;DHT22;20193;49.810;6.418;2022-08-19T01:57:38;18.50;92.00
33901;DHT22;20193;49.810;6.418;2022-08-19T02:00:07;18.50;92.40
33901;DHT22;20193;49.810;6.418;2022-08-19T02:02:33;18.40;92.10
33901;DHT22;20193;49.810;6.418;2022-08-19T02:04:59;18.40;92.10
33901;DHT22;20193;49.810;6.418;2022-08-19T02:07:24;18.40;92.20
33901;DHT22;20193;49.810;6.418;2022-08-19T02:09:50;18.40;92.20
33901;DHT22;20193;49.810;6.418;2022-08-19T02:12:16;18.40;92.30
33901;DHT22;20193;49.810;6.418;2022-08-19T02:14:42;18.30;92.30
33901;DHT22;20193;49.810;6.418;2022-08-19T02:17:07;18.30;92.30
33901;DHT22;20193;49.810;6.418;2022-08-19T02:19:33;18.30;92.40
33901;DHT22;20193;49.810;6.418;2022-08-19T02:21:59;18.30;92.50
33901;DHT22;20193;49.810;6.418;2022-08-19T02:24:25;18.30;92.60
33901;DHT22;20193;49.810;6.418;2022-08-19T02:26:51;18.30;92.60
33901;DHT22;20193;49.810;6.418;2022-08-19T02:29:17;18.20;92.60
33901;DHT22;20193;49.810;6.418;2022-08-19T02:31:42;18.20;92.60
33901;DHT22;20193;49.810;6.418;2022-08-19T02:34:08;18.20;92.70
33901;DHT22;20193;49.810;6.418;2022-08-19T02:36:34;18.20;92.70
33901;DHT22;20193;49.810;6.418;2022-08-19T02:39:00;18.20;92.80
33901;DHT22;20193;49.810;6.418;2022-08-19T02:41:28;18.20;92.80
33901;DHT22;20193;49.810;6.418;2022-08-19T02:43:59;18.10;92.80
33901;DHT22;20193;49.810;6.418;2022-08-19T02:46:28;18.10;92.90
33901;DHT22;20193;49.810;6.418;2022-08-19T02:48:56;18.10;92.90
33901;DHT22;20193;49.810;6.418;2022-08-19T02:51:28;18.10;92.90
33901;DHT22;20193;49.810;6.418;2022-08-19T02:53:54;18.10;93.00
33901;DHT22;20193;49.810;6.418;2022-08-19T02:56:21;18.10;93.00
33901;DHT22;20193;49.810;6.418;2022-08-19T02:58:47;18.10;93.10
33901;DHT22;20193;49.810;6.418;2022-08-19T03:01:26;18.00;93.10
33901;DHT22;20193;49.810;6.418;2022-08-19T03:03:53;18.00;93.20
33901;DHT22;20193;49.810;6.418;2022-08-19T03:06:19;18.00;93.20
33901;DHT22;20193;49.810;6.418;2022-08-19T03:08:46;18.00;93.20
33901;DHT22;20193;49.810;6.418;2022-08-19T03:11:17;17.90;93.20
33901;DHT22;20193;49.810;6.418;2022-08-19T03:13:43;17.90;93.30
33901;DHT22;20193;49.810;6.418;2022-08-19T03:16:09;17.90;93.30
33901;DHT22;20193;49.810;6.418;2022-08-19T03:18:35;17.90;93.30
33901;DHT22;20193;49.810;6.418;2022-08-19T03:21:01;17.90;93.40
33901;DHT22;20193;49.810;6.418;2022-08-19T03:23:26;17.90;93.60
33901;DHT22;20193;49.810;6.418;2022-08-19T03:25:52;17.90;93.60
33901;DHT22;20193;49.810;6.418;2022-08-19T03:28:20;17.90;93.80
33901;DHT22;20193;49.810;6.418;2022-08-19T03:31:07;17.90;93.90
33901;DHT22;20193;49.810;6.418;2022-08-19T03:33:34;17.90;93.90
33901;DHT22;20193;49.810;6.418;2022-08-19T03:36:09;17.90;93.90
33901;DHT22;20193;49.810;6.418;2022-08-19T03:38:37;17.90;94.00
33901;DHT22;20193;49.810;6.418;2022-08-19T03:41:08;17.90;94.10
33901;DHT22;20193;49.810;6.418;2022-08-19T03:43:36;17.80;94.00
33901;DHT22;20193;49.810;6.418;2022-08-19T03:46:05;17.80;94.10
33901;DHT22;20193;49.810;6.418;2022-08-19T03:48:32;17.80;94.10
33901;DHT22;20193;49.810;6.418;2022-08-19T03:50:59;17.80;94.10
33901;DHT22;20193;49.810;6.418;2022-08-19T03:53:29;17.80;94.20
33901;DHT22;20193;49.810;6.418;2022-08-19T03:55:55;17.80;94.30
33901;DHT22;20193;49.810;6.418;2022-08-19T03:58:22;17.80;94.70
33901;DHT22;20193;49.810;6.418;2022-08-19T04:00:48;17.80;94.50
33901;DHT22;20193;49.810;6.418;2022-08-19T04:03:13;17.80;94.60
33901;DHT22;20193;49.810;6.418;2022-08-19T04:05:39;17.80;94.60
33901;DHT22;20193;49.810;6.418;2022-08-19T04:08:05;17.80;94.70
33901;DHT22;20193;49.810;6.418;2022-08-19T04:10:34;17.70;94.70
33901;DHT22;20193;49.810;6.418;2022-08-19T04:13:00;17.80;94.80
33901;DHT22;20193;49.810;6.418;2022-08-19T04:15:26;17.70;94.70
33901;DHT22;20193;49.810;6.418;2022-08-19T04:17:52;17.70;94.70
33901;DHT22;20193;49.810;6.418;2022-08-19T04:20:18;17.70;94.80
33901;DHT22;20193;49.810;6.418;2022-08-19T04:22:44;17.70;94.80
33901;DHT22;20193;49.810;6.418;2022-08-19T04:25:10;17.70;94.80
33901;DHT22;20193;49.810;6.418;2022-08-19T04:27:35;17.70;94.80
33901;DHT22;20193;49.810;6.418;2022-08-19T04:30:01;17.70;94.90
33901;DHT22;20193;49.810;6.418;2022-08-19T04:32:27;17.70;95.00
33901;DHT22;20193;49.810;6.418;2022-08-19T04:34:52;17.60;94.90
33901;DHT22;20193;49.810;6.418;2022-08-19T04:37:18;17.60;94.90
33901;DHT22;20193;49.810;6.418;2022-08-19T04:39:44;17.60;94.90
33901;DHT22;20193;49.810;6.418;2022-08-19T04:42:28;17.60;94.90
33901;DHT22;20193;49.810;6.418;2022-08-19T04:45:11;17.60;94.90
33901;DHT22;20193;49.810;6.418;2022-08-19T04:47:40;17.60;95.00
33901;DHT22;20193;49.810;6.418;2022-08-19T04:50:06;17.60;95.00
33901;DHT22;20193;49.810;6.418;2022-08-19T04:52:33;17.60;95.00
33901;DHT22;20193;49.810;6.418;2022-08-19T04:54:59;17.60;95.00
33901;DHT22;20193;49.810;6.418;2022-08-19T04:57:25;17.60;95.10
33901;DHT22;20193;49.810;6.418;2022-08-19T04:59:55;17.60;95.10
33901;DHT22;20193;49.810;6.418;2022-08-19T05:02:21;17.50;95.10
33901;DHT22;20193;49.810;6.418;2022-08-19T05:04:55;17.60;95.10
33901;DHT22;20193;49.810;6.418;2022-08-19T05:07:21;17.60;95.40
33901;DHT22;20193;49.810;6.418;2022-08-19T05:09:47;17.60;95.20
33901;DHT22;20193;49.810;6.418;2022-08-19T05:12:12;17.60;95.30
33901;DHT22;20193;49.810;6.418;2022-08-19T05:14:38;17.60;95.30
33901;DHT22;20193;49.810;6.418;2022-08-19T05:17:03;17.60;95.40
33901;DHT22;20193;49.810;6.418;2022-08-19T05:19:29;17.60;95.40
33901;DHT22;20193;49.810;6.418;2022-08-19T05:22:13;17.70;95.50
33901;DHT22;20193;49.810;6.418;2022-08-19T05:24:57;17.70;95.60
33901;DHT22;20193;49.810;6.418;2022-08-19T05:27:23;17.80;95.60
33901;DHT22;20193;49.810;6.418;2022-08-19T05:29:49;17.80;95.70
33901;DHT22;20193;49.810;6.418;2022-08-19T05:32:14;17.80;95.70
33901;DHT22;20193;49.810;6.418;2022-08-19T05:34:40;17.90;95.70
33901;DHT22;20193;49.810;6.418;2022-08-19T05:37:06;17.90;95.70
33901;DHT22;20193;49.810;6.418;2022-08-19T05:39:35;18.00;95.70
33901;DHT22;20193;49.810;6.418;2022-08-19T05:42:08;18.10;95.70
33901;DHT22;20193;49.810;6.418;2022-08-19T05:44:37;18.10;95.60
33901;DHT22;20193;49.810;6.418;2022-08-19T05:47:06;18.10;95.50
33901;DHT22;20193;49.810;6.418;2022-08-19T05:49:34;18.10;95.40
33901;DHT22;20193;49.810;6.418;2022-08-19T05:52:06;18.10;95.30
33901;DHT22;20193;49.810;6.418;2022-08-19T05:54:32;18.20;95.30
33901;DHT22;20193;49.810;6.418;2022-08-19T05:57:00;18.20;95.30
33901;DHT22;20193;49.810;6.418;2022-08-19T05:59:26;18.20;95.30
33901;DHT22;20193;49.810;6.418;2022-08-19T06:01:53;18.30;95.30
33901;DHT22;20193;49.810;6.418;2022-08-19T06:04:21;18.40;95.30
33901;DHT22;20193;49.810;6.418;2022-08-19T06:06:48;18.40;95.30
33901;DHT22;20193;49.810;6.418;2022-08-19T06:09:15;18.50;95.40
33901;DHT22;20193;49.810;6.418;2022-08-19T06:11:53;18.50;95.40
33901;DHT22;20193;49.810;6.418;2022-08-19T06:14:22;18.60;95.40
33901;DHT22;20193;49.810;6.418;2022-08-19T06:16:48;18.70;95.30
33901;DHT22;20193;49.810;6.418;2022-08-19T06:19:18;18.70;95.50
33901;DHT22;20193;49.810;6.418;2022-08-19T06:21:47;18.80;95.20
33901;DHT22;20193;49.810;6.418;2022-08-19T06:24:16;18.90;95.30
33901;DHT22;20193;49.810;6.418;2022-08-19T06:26:43;19.10;95.40
33901;DHT22;20193;49.810;6.418;2022-08-19T06:29:11;19.30;95.40
33901;DHT22;20193;49.810;6.418;2022-08-19T06:31:41;19.50;95.30
33901;DHT22;20193;49.810;6.418;2022-08-19T06:34:07;19.80;95.20
33901;DHT22;20193;49.810;6.418;2022-08-19T06:36:36;20.10;95.20
33901;DHT22;20193;49.810;6.418;2022-08-19T06:39:05;20.40;95.00
33901;DHT22;20193;49.810;6.418;2022-08-19T06:41:32;20.80;94.60
33901;DHT22;20193;49.810;6.418;2022-08-19T06:43:59;21.20;94.10
33901;DHT22;20193;49.810;6.418;2022-08-19T06:46:25;21.60;93.50
33901;DHT22;20193;49.810;6.418;2022-08-19T06:48:52;21.90;93.20
33901;DHT22;20193;49.810;6.418;2022-08-19T06:51:19;22.30;92.60
33901;DHT22;20193;49.810;6.418;2022-08-19T06:53:47;22.60;91.80
33901;DHT22;20193;49.810;6.418;2022-08-19T06:56:15;22.90;90.90
33901;DHT22;20193;49.810;6.418;2022-08-19T06:58:41;23.10;89.70
33901;DHT22;20193;49.810;6.418;2022-08-19T07:01:07;23.20;88.60
33901;DHT22;20193;49.810;6.418;2022-08-19T07:03:35;23.40;88.30
33901;DHT22;20193;49.810;6.418;2022-08-19T07:06:10;23.50;87.80
33901;DHT22;20193;49.810;6.418;2022-08-19T07:08:38;23.60;87.70
33901;DHT22;20193;49.810;6.418;2022-08-19T07:11:07;23.70;87.00
33901;DHT22;20193;49.810;6.418;2022-08-19T07:13:34;23.90;86.20
33901;DHT22;20193;49.810;6.418;2022-08-19T07:16:10;24.00;85.60
33901;DHT22;20193;49.810;6.418;2022-08-19T07:18:36;24.10;85.50
33901;DHT22;20193;49.810;6.418;2022-08-19T07:21:08;24.20;85.10
33901;DHT22;20193;49.810;6.418;2022-08-19T07:23:34;24.30;85.00
33901;DHT22;20193;49.810;6.418;2022-08-19T07:26:31;24.30;84.20
33901;DHT22;20193;49.810;6.418;2022-08-19T07:28:57;24.30;83.70
33901;DHT22;20193;49.810;6.418;2022-08-19T07:31:27;24.40;82.90
33901;DHT22;20193;49.810;6.418;2022-08-19T07:33:54;24.30;82.70
33901;DHT22;20193;49.810;6.418;2022-08-19T07:36:28;24.30;82.60
33901;DHT22;20193;49.810;6.418;2022-08-19T07:38:56;24.30;82.70
33901;DHT22;20193;49.810;6.418;2022-08-19T07:41:25;24.30;82.70
33901;DHT22;20193;49.810;6.418;2022-08-19T07:43:51;24.30;82.80
33901;DHT22;20193;49.810;6.418;2022-08-19T07:46:18;24.30;82.60
33901;DHT22;20193;49.810;6.418;2022-08-19T07:48:47;24.30;82.70
33901;DHT22;20193;49.810;6.418;2022-08-19T07:51:17;24.40;82.40
33901;DHT22;20193;49.810;6.418;2022-08-19T07:53:43;24.50;82.20
33901;DHT22;20193;49.810;6.418;2022-08-19T07:56:11;24.50;82.00
33901;DHT22;20193;49.810;6.418;2022-08-19T07:58:40;24.70;82.00
33901;DHT22;20193;49.810;6.418;2022-08-19T08:01:09;24.80;82.00
33901;DHT22;20193;49.810;6.418;2022-08-19T08:03:36;25.00;81.90
33901;DHT22;20193;49.810;6.418;2022-08-19T08:06:21;25.20;81.60
33901;DHT22;20193;49.810;6.418;2022-08-19T08:09:06;25.50;80.70
33901;DHT22;20193;49.810;6.418;2022-08-19T08:12:02;25.70;80.00
33901;DHT22;20193;49.810;6.418;2022-08-19T08:14:36;26.10;79.00
33901;DHT22;20193;49.810;6.418;2022-08-19T08:17:04;26.40;78.30
33901;DHT22;20193;49.810;6.418;2022-08-19T08:19:30;26.60;77.00
33901;DHT22;20193;49.810;6.418;2022-08-19T08:21:58;27.10;76.60
33901;DHT22;20193;49.810;6.418;2022-08-19T08:24:27;27.40;76.50
33901;DHT22;20193;49.810;6.418;2022-08-19T08:26:53;27.80;74.80
33901;DHT22;20193;49.810;6.418;2022-08-19T08:29:19;28.30;73.70
33901;DHT22;20193;49.810;6.418;2022-08-19T08:31:45;28.70;71.20
33901;DHT22;20193;49.810;6.418;2022-08-19T08:34:13;29.10;69.80
33901;DHT22;20193;49.810;6.418;2022-08-19T08:36:42;29.50;68.60
33901;DHT22;20193;49.810;6.418;2022-08-19T08:39:09;29.70;67.00
33901;DHT22;20193;49.810;6.418;2022-08-19T08:41:44;30.00;65.90
33901;DHT22;20193;49.810;6.418;2022-08-19T08:44:22;30.30;65.50
33901;DHT22;20193;49.810;6.418;2022-08-19T08:46:55;30.60;65.00
33901;DHT22;20193;49.810;6.418;2022-08-19T08:49:31;30.90;63.90
33901;DHT22;20193;49.810;6.418;2022-08-19T08:52:06;31.20;62.90
33901;DHT22;20193;49.810;6.418;2022-08-19T08:54:42;31.40;62.00
33901;DHT22;20193;49.810;6.418;2022-08-19T08:57:37;31.60;61.20
33901;DHT22;20193;49.810;6.418;2022-08-19T09:00:10;31.90;60.10
33901;DHT22;20193;49.810;6.418;2022-08-19T09:02:38;32.10;58.50
33901;DHT22;20193;49.810;6.418;2022-08-19T09:05:03;32.30;57.30
33901;DHT22;20193;49.810;6.418;2022-08-19T09:10:34;32.40;54.90
33901;DHT22;20193;49.810;6.418;2022-08-19T09:13:25;32.50;55.90
33901;DHT22;20193;49.810;6.418;2022-08-19T09:16:04;32.60;55.00
33901;DHT22;20193;49.810;6.418;2022-08-19T09:18:46;32.60;54.50
33901;DHT22;20193;49.810;6.418;2022-08-19T09:21:13;32.50;54.50
33901;DHT22;20193;49.810;6.418;2022-08-19T09:23:39;32.60;54.60
33901;DHT22;20193;49.810;6.418;2022-08-19T09:26:10;32.60;54.50
33901;DHT22;20193;49.810;6.418;2022-08-19T09:28:42;32.70;54.60
33901;DHT22;20193;49.810;6.418;2022-08-19T09:31:17;32.80;54.20
33901;DHT22;20193;49.810;6.418;2022-08-19T09:33:43;32.90;53.80
33901;DHT22;20193;49.810;6.418;2022-08-19T09:36:12;32.90;54.10
33901;DHT22;20193;49.810;6.418;2022-08-19T09:38:38;32.80;53.70
33901;DHT22;20193;49.810;6.418;2022-08-19T09:41:11;32.70;53.50
33901;DHT22;20193;49.810;6.418;2022-08-19T09:43:40;32.60;54.10
33901;DHT22;20193;49.810;6.418;2022-08-19T09:46:07;32.50;54.20
33901;DHT22;20193;49.810;6.418;2022-08-19T09:48:34;32.40;54.40
33901;DHT22;20193;49.810;6.418;2022-08-19T09:51:04;32.30;54.50
33901;DHT22;20193;49.810;6.418;2022-08-19T09:53:30;32.10;53.80
33901;DHT22;20193;49.810;6.418;2022-08-19T09:55:56;32.00;53.60
33901;DHT22;20193;49.810;6.418;2022-08-19T09:58:21;31.70;53.40
33901;DHT22;20193;49.810;6.418;2022-08-19T10:00:59;31.60;54.30
33901;DHT22;20193;49.810;6.418;2022-08-19T10:03:26;31.30;54.40
33901;DHT22;20193;49.810;6.418;2022-08-19T10:05:52;31.10;54.80
33901;DHT22;20193;49.810;6.418;2022-08-19T10:08:22;30.80;54.80
33901;DHT22;20193;49.810;6.418;2022-08-19T10:10:48;30.70;56.10
33901;DHT22;20193;49.810;6.418;2022-08-19T10:13:17;30.70;56.20
33901;DHT22;20193;49.810;6.418;2022-08-19T10:15:43;30.60;56.00
33901;DHT22;20193;49.810;6.418;2022-08-19T10:18:08;30.70;56.50
33901;DHT22;20193;49.810;6.418;2022-08-19T10:20:34;30.70;56.70
33901;DHT22;20193;49.810;6.418;2022-08-19T10:23:02;30.80;56.70
33901;DHT22;20193;49.810;6.418;2022-08-19T10:25:28;30.90;55.80
33901;DHT22;20193;49.810;6.418;2022-08-19T10:27:57;30.80;54.10
33901;DHT22;20193;49.810;6.418;2022-08-19T10:30:22;30.70;52.40
33901;DHT22;20193;49.810;6.418;2022-08-19T10:32:48;30.50;53.00
33901;DHT22;20193;49.810;6.418;2022-08-19T10:35:14;30.40;54.20
33901;DHT22;20193;49.810;6.418;2022-08-19T10:37:42;30.40;55.00
33901;DHT22;20193;49.810;6.418;2022-08-19T10:40:09;30.40;55.20
33901;DHT22;20193;49.810;6.418;2022-08-19T10:42:36;30.20;55.70
33901;DHT22;20193;49.810;6.418;2022-08-19T10:45:04;30.00;56.60
33901;DHT22;20193;49.810;6.418;2022-08-19T10:47:34;29.90;57.40
33901;DHT22;20193;49.810;6.418;2022-08-19T10:50:00;29.70;58.10
33901;DHT22;20193;49.810;6.418;2022-08-19T10:52:46;29.60;58.50
33901;DHT22;20193;49.810;6.418;2022-08-19T10:55:12;29.60;58.70
33901;DHT22;20193;49.810;6.418;2022-08-19T10:57:56;29.40;58.80
33901;DHT22;20193;49.810;6.418;2022-08-19T11:00:23;29.30;58.70
33901;DHT22;20193;49.810;6.418;2022-08-19T11:02:50;29.10;58.70
33901;DHT22;20193;49.810;6.418;2022-08-19T11:05:15;29.00;58.60
33901;DHT22;20193;49.810;6.418;2022-08-19T11:07:42;28.90;58.10
33901;DHT22;20193;49.810;6.418;2022-08-19T11:10:13;28.90;58.80
33901;DHT22;20193;49.810;6.418;2022-08-19T11:12:40;28.90;59.00
33901;DHT22;20193;49.810;6.418;2022-08-19T11:15:08;28.80;58.40
33901;DHT22;20193;49.810;6.418;2022-08-19T11:17:38;28.70;58.50
33901;DHT22;20193;49.810;6.418;2022-08-19T11:20:07;28.80;59.00
33901;DHT22;20193;49.810;6.418;2022-08-19T11:22:33;28.80;58.30
33901;DHT22;20193;49.810;6.418;2022-08-19T11:24:59;28.90;57.40
33901;DHT22;20193;49.810;6.418;2022-08-19T11:27:25;29.00;57.00
33901;DHT22;20193;49.810;6.418;2022-08-19T11:29:50;29.20;56.80
33901;DHT22;20193;49.810;6.418;2022-08-19T11:32:17;29.30;56.80
33901;DHT22;20193;49.810;6.418;2022-08-19T11:34:43;29.50;56.70
33901;DHT22;20193;49.810;6.418;2022-08-19T11:37:09;29.60;55.90
33901;DHT22;20193;49.810;6.418;2022-08-19T11:39:35;29.80;54.80
33901;DHT22;20193;49.810;6.418;2022-08-19T11:42:03;29.90;54.00
33901;DHT22;20193;49.810;6.418;2022-08-19T11:44:49;29.90;52.50
33901;DHT22;20193;49.810;6.418;2022-08-19T11:47:15;30.00;53.10
33901;DHT22;20193;49.810;6.418;2022-08-19T11:49:40;30.00;52.90
33901;DHT22;20193;49.810;6.418;2022-08-19T11:52:07;30.00;54.80
33901;DHT22;20193;49.810;6.418;2022-08-19T11:54:33;29.90;55.90
33901;DHT22;20193;49.810;6.418;2022-08-19T11:56:59;29.80;55.50
33901;DHT22;20193;49.810;6.418;2022-08-19T11:59:26;29.70;55.60
33901;DHT22;20193;49.810;6.418;2022-08-19T12:01:52;29.60;55.30
33901;DHT22;20193;49.810;6.418;2022-08-19T12:04:18;29.50;55.50
33901;DHT22;20193;49.810;6.418;2022-08-19T12:06:43;29.40;56.10
33901;DHT22;20193;49.810;6.418;2022-08-19T12:09:10;29.40;56.30
33901;DHT22;20193;49.810;6.418;2022-08-19T12:11:37;29.40;55.90
33901;DHT22;20193;49.810;6.418;2022-08-19T12:14:04;29.40;55.70
33901;DHT22;20193;49.810;6.418;2022-08-19T12:16:30;29.40;52.70
33901;DHT22;20193;49.810;6.418;2022-08-19T12:18:57;29.40;52.30
33901;DHT22;20193;49.810;6.418;2022-08-19T12:21:26;29.40;52.60
33901;DHT22;20193;49.810;6.418;2022-08-19T12:23:55;29.40;50.80
33901;DHT22;20193;49.810;6.418;2022-08-19T12:26:21;29.50;52.70
33901;DHT22;20193;49.810;6.418;2022-08-19T12:28:47;29.60;52.90
33901;DHT22;20193;49.810;6.418;2022-08-19T12:31:13;29.60;53.10
33901;DHT22;20193;49.810;6.418;2022-08-19T12:33:40;29.50;53.20
33901;DHT22;20193;49.810;6.418;2022-08-19T12:36:09;29.50;53.00
33901;DHT22;20193;49.810;6.418;2022-08-19T12:38:35;29.40;53.10
33901;DHT22;20193;49.810;6.418;2022-08-19T12:41:02;29.30;52.70
33901;DHT22;20193;49.810;6.418;2022-08-19T12:43:30;29.20;52.60
33901;DHT22;20193;49.810;6.418;2022-08-19T12:45:56;29.10;53.20
33901;DHT22;20193;49.810;6.418;2022-08-19T12:48:22;29.10;53.30
33901;DHT22;20193;49.810;6.418;2022-08-19T12:50:48;29.10;53.60
33901;DHT22;20193;49.810;6.418;2022-08-19T12:53:14;29.10;54.00
33901;DHT22;20193;49.810;6.418;2022-08-19T12:55:41;29.10;53.00
33901;DHT22;20193;49.810;6.418;2022-08-19T12:58:08;29.00;52.60
33901;DHT22;20193;49.810;6.418;2022-08-19T13:00:36;29.00;53.30
33901;DHT22;20193;49.810;6.418;2022-08-19T13:03:02;28.80;53.70
33901;DHT22;20193;49.810;6.418;2022-08-19T13:05:31;28.60;54.30
33901;DHT22;20193;49.810;6.418;2022-08-19T13:07:59;28.60;54.80
33901;DHT22;20193;49.810;6.418;2022-08-19T13:10:28;28.60;55.00
33901;DHT22;20193;49.810;6.418;2022-08-19T13:12:54;28.60;54.80
33901;DHT22;20193;49.810;6.418;2022-08-19T13:15:22;28.70;54.80
33901;DHT22;20193;49.810;6.418;2022-08-19T13:17:49;28.70;54.50
33901;DHT22;20193;49.810;6.418;2022-08-19T13:20:18;28.70;54.10
33901;DHT22;20193;49.810;6.418;2022-08-19T13:22:45;28.70;54.00
33901;DHT22;20193;49.810;6.418;2022-08-19T13:25:12;28.60;53.10
33901;DHT22;20193;49.810;6.418;2022-08-19T13:27:38;28.50;53.70
33901;DHT22;20193;49.810;6.418;2022-08-19T13:30:06;28.50;54.00
33901;DHT22;20193;49.810;6.418;2022-08-19T13:32:51;28.60;53.90
33901;DHT22;20193;49.810;6.418;2022-08-19T13:35:35;28.60;52.80
33901;DHT22;20193;49.810;6.418;2022-08-19T13:38:01;28.60;54.10
33901;DHT22;20193;49.810;6.418;2022-08-19T13:40:30;28.60;54.70
33901;DHT22;20193;49.810;6.418;2022-08-19T13:43:03;28.70;55.30
33901;DHT22;20193;49.810;6.418;2022-08-19T13:45:30;28.80;55.50
33901;DHT22;20193;49.810;6.418;2022-08-19T13:47:58;28.90;55.30
33901;DHT22;20193;49.810;6.418;2022-08-19T13:50:27;29.00;54.80
33901;DHT22;20193;49.810;6.418;2022-08-19T13:52:54;29.10;55.00
33901;DHT22;20193;49.810;6.418;2022-08-19T13:55:20;29.30;54.80
33901;DHT22;20193;49.810;6.418;2022-08-19T13:57:50;29.40;54.80
33901;DHT22;20193;49.810;6.418;2022-08-19T14:00:18;29.60;54.00
33901;DHT22;20193;49.810;6.418;2022-08-19T14:02:44;29.70;53.60
33901;DHT22;20193;49.810;6.418;2022-08-19T14:05:13;29.80;53.70
33901;DHT22;20193;49.810;6.418;2022-08-19T14:07:39;29.80;53.50
33901;DHT22;20193;49.810;6.418;2022-08-19T14:10:07;29.90;53.20
33901;DHT22;20193;49.810;6.418;2022-08-19T14:12:33;29.80;53.50
33901;DHT22;20193;49.810;6.418;2022-08-19T14:15:00;29.80;53.70
33901;DHT22;20193;49.810;6.418;2022-08-19T14:17:26;29.80;54.00
33901;DHT22;20193;49.810;6.418;2022-08-19T14:20:03;29.80;54.30
33901;DHT22;20193;49.810;6.418;2022-08-19T14:22:33;29.70;54.60
33901;DHT22;20193;49.810;6.418;2022-08-19T14:24:59;29.60;54.70
33901;DHT22;20193;49.810;6.418;2022-08-19T14:27:25;29.50;54.70
33901;DHT22;20193;49.810;6.418;2022-08-19T14:29:51;29.50;54.50
33901;DHT22;20193;49.810;6.418;2022-08-19T14:32:17;29.50;55.50
33901;DHT22;20193;49.810;6.418;2022-08-19T14:34:43;29.50;55.50
33901;DHT22;20193;49.810;6.418;2022-08-19T14:37:12;29.50;55.30
33901;DHT22;20193;49.810;6.418;2022-08-19T14:39:42;29.50;55.40
33901;DHT22;20193;49.810;6.418;2022-08-19T14:42:10;29.50;55.00
33901;DHT22;20193;49.810;6.418;2022-08-19T14:44:36;29.50;55.10
33901;DHT22;20193;49.810;6.418;2022-08-19T14:47:02;29.40;55.00
33901;DHT22;20193;49.810;6.418;2022-08-19T14:49:28;29.40;55.30
33901;DHT22;20193;49.810;6.418;2022-08-19T14:51:54;29.40;55.60
33901;DHT22;20193;49.810;6.418;2022-08-19T14:54:20;29.50;55.90
33901;DHT22;20193;49.810;6.418;2022-08-19T14:56:46;29.50;55.90
33901;DHT22;20193;49.810;6.418;2022-08-19T14:59:13;29.60;56.10
33901;DHT22;20193;49.810;6.418;2022-08-19T15:01:38;29.60;55.90
33901;DHT22;20193;49.810;6.418;2022-08-19T15:04:04;29.60;55.80
33901;DHT22;20193;49.810;6.418;2022-08-19T15:06:30;29.60;55.50
33901;DHT22;20193;49.810;6.418;2022-08-19T15:08:57;29.60;55.70
33901;DHT22;20193;49.810;6.418;2022-08-19T15:11:25;29.60;55.90
33901;DHT22;20193;49.810;6.418;2022-08-19T15:13:51;29.60;56.10
33901;DHT22;20193;49.810;6.418;2022-08-19T15:16:18;29.60;56.00
33901;DHT22;20193;49.810;6.418;2022-08-19T15:18:44;29.50;56.10
33901;DHT22;20193;49.810;6.418;2022-08-19T15:21:14;29.50;56.10
33901;DHT22;20193;49.810;6.418;2022-08-19T15:23:44;29.50;56.40
33901;DHT22;20193;49.810;6.418;2022-08-19T15:26:11;29.50;56.70
33901;DHT22;20193;49.810;6.418;2022-08-19T15:28:37;29.50;56.70
33901;DHT22;20193;49.810;6.418;2022-08-19T15:31:03;29.40;56.70
33901;DHT22;20193;49.810;6.418;2022-08-19T15:33:31;29.40;56.90
33901;DHT22;20193;49.810;6.418;2022-08-19T15:35:57;29.40;57.20
33901;DHT22;20193;49.810;6.418;2022-08-19T15:38:24;29.40;57.40
33901;DHT22;20193;49.810;6.418;2022-08-19T15:40:51;29.40;57.30